Terminal Aerodrome Forecast
Issued by NWS Bismarck, ND

Home | Current Version | Previous Version | Text Only | Print | Product List | Glossary Off
Versions: 1 2 3 4 5 6 7 8 9 10 11 12 13 14 15 16 17 18 19 20 21 22 23 24

500
FTUS43 KBIS 101733
TAFISN
TAF
KISN 101733Z 1018/1118 26011KT P6SM SCT110 BKN140
     FM110000 27010KT P6SM FEW100
     FM110400 30019G29KT P6SM BKN035
     FM110600 31021G32KT P6SM -SHSN BKN018 OVC025
     FM111400 31016G25KT P6SM OVC015=

USA.gov is the U.S. government's official web portal to all federal, state and local government web resources and services.